Portada
METAR-TAF:

METAR-TAF

Aeroports :

Amritsar, Índia

latitud: 31-38N, longitud: 074-52E, altitud: 229 m

Observació

L'informe es va fer fa 43 minuts, a les 11:00 UTC
Vent 5 kt del Sud
Temperatura 24°C
Humitat 57%
Pressió 1013 hPa
Visibilitat: 2100 m
Escasses núvols a una alçada de 4000 ft
Núvols disperses a una alçada de 10000 ft
calitja

METAR: VIAR 271100Z 17005KT 2100 HZ FEW040 SCT100 24/15 Q1013 NOSIG

Hora: 17:13 (11:43 UTC)

Pronòstic

L'informe es va fer fa 43 minuts, a les 11:00 UTC
Pronòstic vàlid del 27 a les 12 UTC al 27 a les 21 UTC
Vent 5 kt del Sud
Visibilitat: 2000 m
Escasses núvols a una alçada de 4000 ft
Núvols disperses a una alçada de 10000 ft
calitja
Evolucionant progressivament
l' 27 a les 18 UTC al 27 a les 20 UTC
Vent 2 kt amb direcció variable
Visibilitat: 1200 m
Núvols disperses a una alçada de 4000 ft
Cel ennuvolat a una alçada de 9000 ft
boirina, pluja

TAF: VIAR 271100Z 2712/2721 18005KT 2000 HZ FEW040 SCT100 BECMG 2718/2720 VRB02KT 1200 BR -RA SCT040 BKN090

Observacions i pronòstics meteorològics de més de 4000 aeroports (METAR i TAF).

Les estacions disponibles són els punts grocs i vermells al mapa.

Posi el ratolí al punt desitjat per veure el nom de l'estació.

Feu clic per veure les observacions i els pronòstics meteorològics.

Per canviar el mapa: feu clic els botons verds amb una creu de color negre per apropar; al botó verd amb un guió per allunyar la imatge; o en les fletxes verdes per a mapes adjacents.


METAR-TAF: